Time;durP1;ratioP1;P1;durP2;ratioP2;P2;SDS_P1;SDS_P2;PMS_P1;PMS_P2;Temp;Humidity;BMP_temperature;BMP_pressure;BME280_temperature;BME280_humidity;BME280_pressure;Samples;Min_cycle;Max_cycle;Signal;HPM_P1;HPM_P2
2022/05/30 00:00:17;;;;;;;7.22;2.72;;;;;;;12.38;71.02;100614.75;5042593;28;20087;-75
2022/05/30 00:02:43;;;;;;;5.40;3.08;;;;;;;12.84;68.92;100618.00;5052200;28;20078;-75
2022/05/30 00:05:10;;;;;;;5.35;2.58;;;;;;;12.77;69.52;100616.69;5060973;28;20048;-76
2022/05/30 00:07:39;;;;;;;6.95;3.42;;;;;;;12.88;69.20;100612.44;5062541;28;20121;-75
2022/05/30 00:10:09;;;;;;;7.75;2.90;;;;;;;13.20;67.98;100617.47;5055832;28;20198;-75
2022/05/30 00:12:35;;;;;;;9.48;3.42;;;;;;;12.63;69.50;100620.19;5059757;28;20093;-75
2022/05/30 00:15:02;;;;;;;9.68;3.35;;;;;;;12.42;70.45;100619.72;5047602;28;20040;-75
2022/05/30 00:17:29;;;;;;;10.65;3.10;;;;;;;12.27;71.47;100618.00;5059785;28;20048;-75
2022/05/30 00:19:56;;;;;;;9.05;2.53;;;;;;;12.72;69.79;100616.13;5058428;28;20277;-75
2022/05/30 00:22:23;;;;;;;5.70;3.03;;;;;;;12.50;70.55;100616.59;5059834;28;20408;-75
2022/05/30 00:24:50;;;;;;;8.30;2.90;;;;;;;12.89;69.48;100614.16;5054048;28;20098;-75
2022/05/30 00:27:18;;;;;;;8.07;2.80;;;;;;;12.66;70.50;100620.00;5056704;28;20095;-76
2022/05/30 00:29:45;;;;;;;9.65;3.17;;;;;;;12.43;71.25;100615.28;5059837;28;20052;-76
2022/05/30 00:32:12;;;;;;;13.35;2.80;;;;;;;12.87;68.98;100612.53;5056680;28;20045;-76
2022/05/30 00:34:39;;;;;;;8.40;2.67;;;;;;;12.71;69.72;100612.69;5044707;28;20087;-75
2022/05/30 00:37:06;;;;;;;8.77;2.72;;;;;;;12.84;69.21;100612.72;5063095;28;20041;-75
2022/05/30 00:39:32;;;;;;;9.70;2.30;;;;;;;13.08;68.10;100617.28;5064358;28;20489;-75
2022/05/30 00:42:09;;;;;;;7.10;2.80;;;;;;;13.07;68.02;100612.97;5065280;28;20493;-75
2022/05/30 00:44:35;;;;;;;16.13;2.97;;;;;;;12.61;69.50;100619.44;5067440;28;20048;-75
2022/05/30 00:47:02;;;;;;;16.83;3.00;;;;;;;12.04;71.71;100618.56;5056104;28;20041;-76
2022/05/30 00:49:28;;;;;;;7.72;2.45;;;;;;;12.31;70.57;100619.50;5052124;28;20044;-76
2022/05/30 00:51:57;;;;;;;12.60;2.75;;;;;;;12.15;71.11;100626.66;5050031;28;20649;-75
2022/05/30 00:54:43;;;;;;;8.20;2.80;;;;;;;12.41;70.47;100618.03;5062441;28;20520;-75
2022/05/30 00:57:21;;;;;;;6.95;2.88;;;;;;;12.60;69.42;100630.91;5062535;28;20048;-76
2022/05/30 00:59:50;;;;;;;6.07;2.55;;;;;;;12.31;69.88;100622.16;5065241;28;20067;-76
2022/05/30 01:02:17;;;;;;;12.38;3.00;;;;;;;12.19;70.38;100617.66;5067177;28;20082;-76
2022/05/30 01:07:27;;;;;;;13.95;3.00;;;;;;;12.36;69.63;100633.25;5054643;28;20103;-75
2022/05/30 01:09:56;;;;;;;19.50;3.65;;;;;;;12.44;69.19;100623.09;5057069;28;20044;-76
2022/05/30 01:12:37;;;;;;;5.78;2.08;;;;;;;12.51;68.63;100629.69;5059214;28;20046;-75
2022/05/30 01:15:05;;;;;;;14.50;2.75;;;;;;;12.55;68.46;100622.44;5049721;28;20045;-75
2022/05/30 01:17:32;;;;;;;8.57;2.85;;;;;;;12.63;68.06;100626.31;5056677;28;20049;-75
2022/05/30 01:20:02;;;;;;;14.20;2.90;;;;;;;12.94;66.59;100627.00;5063637;28;20140;-75
2022/05/30 01:22:42;;;;;;;7.32;2.40;;;;;;;12.41;68.54;100622.44;5048975;28;20094;-75
2022/05/30 01:25:21;;;;;;;7.10;2.50;;;;;;;12.24;69.31;100631.34;5062344;28;20075;-76
2022/05/30 01:27:57;;;;;;;8.57;1.85;;;;;;;12.59;67.69;100624.81;5067360;28;20178;-75
2022/05/30 01:30:25;;;;;;;9.63;2.63;;;;;;;12.48;68.33;100624.63;5066782;28;20041;-75
2022/05/30 01:32:56;;;;;;;7.63;2.35;;;;;;;12.43;68.47;100624.03;5067148;28;20102;-76
2022/05/30 01:35:24;;;;;;;11.68;2.50;;;;;;;12.06;70.03;100620.16;5066283;28;20462;-76
2022/05/30 01:37:50;;;;;;;7.68;2.80;;;;;;;12.14;69.39;100620.53;5067642;28;20106;-77
2022/05/30 01:40:16;;;;;;;6.45;2.25;;;;;;;12.09;69.37;100612.09;5061284;28;20045;-78
2022/05/30 01:42:43;;;;;;;11.10;3.50;;;;;;;11.83;69.93;100609.28;5051933;28;20055;-77
2022/05/30 01:45:10;;;;;;;15.13;2.60;;;;;;;11.43;72.18;100606.34;5050343;28;20052;-77
2022/05/30 01:47:37;;;;;;;6.93;2.22;;;;;;;11.76;70.83;100616.69;5047165;28;20048;-76
2022/05/30 01:50:05;;;;;;;8.55;2.40;;;;;;;11.91;70.56;100610.53;5058778;28;20049;-77
2022/05/30 01:52:31;;;;;;;8.13;2.53;;;;;;;12.14;69.24;100603.94;5068381;28;20041;-76
2022/05/30 01:54:58;;;;;;;10.15;2.22;;;;;;;11.83;70.54;100604.03;5056936;28;20268;-77
2022/05/30 01:57:24;;;;;;;8.80;2.30;;;;;;;11.96;70.72;100610.28;5048842;28;20049;-76
2022/05/30 01:59:51;;;;;;;10.25;2.08;;;;;;;11.75;71.21;100603.69;5047662;28;20094;-77
2022/05/30 02:02:17;;;;;;;9.40;3.03;;;;;;;11.76;71.39;100600.09;5047707;28;20437;-76
2022/05/30 02:04:45;;;;;;;8.52;2.30;;;;;;;11.73;71.44;100595.88;5050338;28;20049;-76
2022/05/30 02:07:11;;;;;;;6.75;2.38;;;;;;;11.88;71.00;100599.38;5048125;28;20045;-75
2022/05/30 02:09:38;;;;;;;9.00;2.40;;;;;;;11.69;71.76;100605.69;5053436;28;20252;-75
2022/05/30 02:12:05;;;;;;;6.32;2.60;;;;;;;12.31;69.26;100601.09;5061621;28;20041;-75
2022/05/30 02:14:31;;;;;;;11.82;2.60;;;;;;;12.15;69.73;100608.25;5064627;28;20041;-76
2022/05/30 02:17:04;;;;;;;10.02;2.78;;;;;;;11.89;70.34;100608.97;5054760;28;20045;-76
2022/05/30 02:19:33;;;;;;;18.70;3.92;;;;;;;11.54;71.95;100605.72;5045997;28;20039;-75
2022/05/30 02:22:01;;;;;;;8.80;2.65;;;;;;;11.53;71.95;100599.63;5046813;28;20110;-75
2022/05/30 02:24:28;;;;;;;11.20;2.70;;;;;;;11.80;70.70;100598.97;5059652;28;20049;-75
2022/05/30 02:26:54;;;;;;;12.10;3.03;;;;;;;11.79;70.93;100598.13;5058643;28;20103;-74
2022/05/30 02:29:21;;;;;;;7.65;2.72;;;;;;;11.74;70.79;100599.34;5064345;28;20044;-74
2022/05/30 02:31:47;;;;;;;12.13;3.10;;;;;;;12.31;68.40;100600.25;5062154;28;20493;-74
2022/05/30 02:36:58;;;;;;;8.45;2.30;;;;;;;11.80;69.89;100606.84;5065101;28;20058;-77
2022/05/30 02:39:27;;;;;;;13.20;3.72;;;;;;;11.86;69.97;100596.00;5055494;28;20618;-77
2022/05/30 02:41:54;;;;;;;9.60;2.55;;;;;;;12.02;69.57;100600.25;5057895;28;20102;-77
2022/05/30 02:44:23;;;;;;;7.57;2.40;;;;;;;11.77;69.91;100602.63;5054590;28;20058;-77
2022/05/30 02:46:52;;;;;;;9.63;2.60;;;;;;;12.34;67.77;100608.00;5045151;28;20053;-76
2022/05/30 02:49:19;;;;;;;13.05;2.28;;;;;;;12.49;66.86;100609.69;5046107;28;20049;-76
2022/05/30 02:51:46;;;;;;;9.82;2.10;;;;;;;12.54;66.45;100611.06;5046436;28;20436;-76
2022/05/30 02:54:13;;;;;;;10.63;2.80;;;;;;;12.04;68.38;100602.78;5053002;28;20114;-76
2022/05/30 02:56:42;;;;;;;10.57;2.60;;;;;;;12.47;67.13;100611.53;5053914;28;20099;-75
2022/05/30 02:59:09;;;;;;;5.90;2.20;;;;;;;12.45;67.16;100613.44;5046291;28;20045;-75
2022/05/30 03:01:36;;;;;;;6.03;2.22;;;;;;;12.49;66.80;100620.19;5046542;28;20052;-75
2022/05/30 03:04:04;;;;;;;11.35;2.58;;;;;;;12.09;68.05;100627.84;5045664;28;20496;-75
2022/05/30 03:06:31;;;;;;;5.38;2.17;;;;;;;11.91;69.00;100628.94;5047528;28;20447;-75
2022/05/30 03:08:57;;;;;;;5.25;2.20;;;;;;;11.81;69.11;100627.81;5056995;28;20048;-75
2022/05/30 03:11:24;;;;;;;7.68;2.83;;;;;;;12.07;68.44;100624.47;5049131;28;20041;-76
2022/05/30 03:13:52;;;;;;;15.57;3.40;;;;;;;12.45;67.13;100627.41;5058087;28;20040;-76
2022/05/30 03:16:18;;;;;;;11.02;2.75;;;;;;;12.03;68.11;100622.97;5046954;28;20567;-76
2022/05/30 03:18:45;;;;;;;8.50;2.80;;;;;;;11.76;69.60;100627.22;5050876;28;20052;-76
2022/05/30 03:21:11;;;;;;;11.10;2.38;;;;;;;11.83;68.76;100625.91;5065499;28;20040;-76
2022/05/30 03:23:38;;;;;;;10.15;2.58;;;;;;;12.11;68.06;100627.78;5061442;28;20389;-76
2022/05/30 03:26:05;;;;;;;8.95;2.20;;;;;;;11.88;68.56;100634.38;5060013;28;20076;-76
2022/05/30 03:28:32;;;;;;;10.98;2.83;;;;;;;12.22;67.17;100625.34;5085415;28;20380;-76
2022/05/30 03:31:00;;;;;;;9.82;2.63;;;;;;;12.18;67.17;100629.94;5051338;28;20045;-76
2022/05/30 03:33:28;;;;;;;7.07;2.78;;;;;;;11.79;68.59;100640.16;5045448;28;20044;-76
2022/05/30 03:35:54;;;;;;;11.75;2.38;;;;;;;11.45;69.47;100641.25;5048425;28;20133;-76
2022/05/30 03:38:21;;;;;;;9.63;2.30;;;;;;;11.75;68.79;100637.81;5051682;28;20090;-77
2022/05/30 03:40:48;;;;;;;6.68;2.17;;;;;;;11.90;68.23;100648.25;5046299;28;20054;-76
2022/05/30 03:43:14;;;;;;;15.80;3.22;;;;;;;11.87;67.99;100645.81;5044760;28;20045;-76
2022/05/30 03:45:43;;;;;;;10.48;2.63;;;;;;;11.97;67.37;100636.44;5043444;28;20049;-76
2022/05/30 03:48:14;;;;;;;7.55;2.33;;;;;;;11.83;67.87;100652.19;5048555;28;20134;-76
2022/05/30 03:50:41;;;;;;;12.18;2.38;;;;;;;12.15;66.47;100642.44;5044831;28;20060;-76
2022/05/30 03:53:09;;;;;;;14.65;2.40;;;;;;;11.91;67.63;100651.75;5061336;28;20041;-77
2022/05/30 03:55:38;;;;;;;6.15;2.33;;;;;;;12.07;67.01;100645.50;5054515;28;20049;-77
2022/05/30 03:58:06;;;;;;;12.57;2.40;;;;;;;12.38;65.26;100648.94;5045486;28;20048;-76
2022/05/30 04:00:33;;;;;;;6.75;2.03;;;;;;;11.98;66.95;100666.22;5047121;28;20045;-77
2022/05/30 04:03:00;;;;;;;6.88;2.13;;;;;;;12.19;65.96;100651.81;5044407;28;20041;-76
2022/05/30 04:05:29;;;;;;;10.93;2.40;;;;;;;11.87;67.52;100658.09;5043046;28;20091;-76
2022/05/30 04:07:55;;;;;;;6.45;2.13;;;;;;;11.97;66.94;100672.41;5046166;28;20047;-76
2022/05/30 04:10:22;;;;;;;6.55;2.22;;;;;;;11.84;67.19;100663.53;5050493;28;20049;-76
2022/05/30 04:12:49;;;;;;;9.50;2.60;;;;;;;11.90;67.36;100673.72;5044127;28;20060;-76
2022/05/30 04:15:20;;;;;;;10.52;2.47;;;;;;;11.90;67.41;100668.47;5046914;28;20049;-77
2022/05/30 04:17:47;;;;;;;11.02;2.50;;;;;;;11.88;67.49;100670.31;5044315;28;20052;-76
2022/05/30 04:20:13;;;;;;;8.13;1.95;;;;;;;12.42;66.33;100674.94;5040989;28;20538;-76
2022/05/30 04:22:41;;;;;;;14.88;2.50;;;;;;;12.19;66.83;100670.22;5045377;28;20102;-76
2022/05/30 04:25:08;;;;;;;11.75;2.88;;;;;;;12.05;67.54;100672.78;5056434;28;20607;-76
2022/05/30 04:27:35;;;;;;;8.65;2.58;;;;;;;12.31;66.68;100666.84;5062770;28;20189;-77
2022/05/30 04:30:01;;;;;;;13.70;2.78;;;;;;;12.73;64.69;100676.56;5044051;28;20122;-76
2022/05/30 04:32:27;;;;;;;8.85;2.20;;;;;;;12.44;65.46;100680.97;5043439;28;20045;-76
2022/05/30 04:34:54;;;;;;;14.85;3.15;;;;;;;12.30;65.87;100678.31;5047222;28;20048;-76
2022/05/30 04:37:20;;;;;;;10.27;3.63;;;;;;;12.32;65.86;100680.84;5046193;28;20111;-76
2022/05/30 04:39:48;;;;;;;10.15;2.42;;;;;;;12.13;66.66;100681.94;5050018;28;20045;-76
2022/05/30 04:42:14;;;;;;;6.30;2.30;;;;;;;12.39;65.45;100680.38;5049952;28;20049;-76
2022/05/30 04:44:40;;;;;;;9.13;2.95;;;;;;;12.52;65.51;100683.97;5039794;28;20516;-76
2022/05/30 04:47:11;;;;;;;7.85;2.35;;;;;;;12.28;66.09;100668.81;5058802;28;20044;-76
2022/05/30 04:49:37;;;;;;;12.07;3.30;;;;;;;12.58;65.64;100670.44;5052453;28;20048;-77
2022/05/30 04:52:05;;;;;;;8.80;2.47;;;;;;;12.42;66.10;100672.31;5048966;28;20044;-77
2022/05/30 04:54:31;;;;;;;6.57;2.28;;;;;;;12.24;66.62;100683.06;5054418;28;20037;-77
2022/05/30 04:56:59;;;;;;;10.75;2.72;;;;;;;12.39;66.61;100682.16;5057610;28;20044;-77
2022/05/30 04:59:25;;;;;;;10.38;2.58;;;;;;;12.54;66.53;100671.56;5065384;28;20041;-77
2022/05/30 05:01:52;;;;;;;6.93;2.00;;;;;;;12.68;65.31;100681.25;5064810;28;20071;-77
2022/05/30 05:04:18;;;;;;;11.48;3.33;;;;;;;12.30;66.62;100675.69;5064466;28;20067;-77
2022/05/30 05:06:45;;;;;;;7.32;2.63;;;;;;;12.46;66.73;100681.69;5062034;28;20049;-75
2022/05/30 05:09:25;;;;;;;10.80;2.53;;;;;;;12.86;65.10;100681.91;5045439;28;20041;-75
2022/05/30 05:11:51;;;;;;;14.65;3.22;;;;;;;13.19;64.15;100681.63;5052925;28;20025;-75
2022/05/30 05:14:19;;;;;;;12.07;2.55;;;;;;;12.93;65.33;100688.50;5067963;28;20049;-75
2022/05/30 05:16:46;;;;;;;12.40;2.78;;;;;;;13.10;64.32;100689.16;5071331;28;20033;-73
2022/05/30 05:19:13;;;;;;;9.00;2.20;;;;;;;13.41;64.14;100688.06;5071991;28;20078;-73
2022/05/30 05:21:43;;;;;;;7.28;2.08;;;;;;;13.49;64.11;100688.38;5085167;28;20074;-74
2022/05/30 05:24:10;;;;;;;13.10;2.13;;;;;;;13.53;63.87;100683.75;5055031;28;20053;-74
2022/05/30 05:26:44;;;;;;;10.38;2.45;;;;;;;13.97;63.63;100681.69;5052531;28;20049;-74
2022/05/30 05:29:10;;;;;;;8.27;2.10;;;;;;;14.57;61.35;100679.38;5060424;28;20467;-76
2022/05/30 05:31:38;;;;;;;19.67;3.33;;;;;;;14.39;61.27;100683.28;5061142;28;20675;-74
2022/05/30 05:34:07;;;;;;;5.47;1.60;;;;;;;14.58;60.92;100686.34;5068039;28;20664;-75
2022/05/30 05:36:36;;;;;;;11.73;2.20;;;;;;;14.52;61.00;100688.56;5056523;28;20049;-75
2022/05/30 05:39:04;;;;;;;10.63;2.58;;;;;;;14.69;61.20;100692.66;5050618;28;20499;-76
2022/05/30 05:41:30;;;;;;;11.82;2.60;;;;;;;14.73;60.86;100686.22;5059368;28;20106;-74
2022/05/30 05:43:57;;;;;;;10.82;2.30;;;;;;;14.43;61.49;100684.75;5048602;28;20048;-73
2022/05/30 05:46:25;;;;;;;12.88;3.03;;;;;;;14.37;61.13;100685.19;5051932;28;20134;-74
2022/05/30 05:48:54;;;;;;;9.85;2.22;;;;;;;14.34;60.49;100693.28;5051911;28;20049;-74
2022/05/30 05:51:21;;;;;;;10.02;1.90;;;;;;;14.36;61.11;100693.19;5052243;28;20091;-74
2022/05/30 05:53:48;;;;;;;7.00;1.88;;;;;;;13.97;61.00;100699.28;5051418;28;20068;-75
2022/05/30 05:56:18;;;;;;;11.88;2.20;;;;;;;13.79;62.28;100703.16;5053981;28;20094;-75
2022/05/30 05:58:44;;;;;;;9.07;2.03;;;;;;;14.09;62.23;100693.22;5056155;28;20063;-75
2022/05/30 06:01:12;;;;;;;6.78;1.80;;;;;;;13.94;61.93;100700.34;5045795;28;20041;-75
2022/05/30 06:03:39;;;;;;;12.48;2.60;;;;;;;14.06;62.81;100699.56;5047608;28;20061;-71
2022/05/30 06:06:07;;;;;;;8.23;2.03;;;;;;;14.09;63.38;100707.25;5049967;28;20068;-71
2022/05/30 06:08:34;;;;;;;12.70;3.25;;;;;;;14.02;62.78;100699.84;5045638;28;20456;-71
2022/05/30 06:11:08;;;;;;;8.57;2.45;;;;;;;13.70;63.30;100704.63;5058111;28;20064;-72
2022/05/30 06:13:35;;;;;;;12.73;2.72;;;;;;;13.95;62.71;100714.38;5044544;28;20045;-72
2022/05/30 06:16:05;;;;;;;9.93;2.70;;;;;;;14.46;62.59;100696.88;5047655;28;20386;-72
2022/05/30 06:18:32;;;;;;;10.80;2.28;;;;;;;15.13;62.77;100698.31;5046910;28;20041;-73
2022/05/30 06:20:58;;;;;;;10.63;2.95;;;;;;;15.65;61.07;100689.28;5044618;28;20067;-72
2022/05/30 06:23:26;;;;;;;9.25;2.38;;;;;;;16.12;58.59;100702.47;5054004;28;20044;-72
2022/05/30 06:25:53;;;;;;;12.82;2.70;;;;;;;16.65;56.68;100702.88;5058681;28;20040;-72
2022/05/30 06:28:19;;;;;;;10.00;2.83;;;;;;;17.49;56.05;100705.81;5065667;28;20041;-72
2022/05/30 06:30:46;;;;;;;8.88;2.42;;;;;;;17.91;52.15;100699.69;5064606;28;20040;-72
2022/05/30 06:33:12;;;;;;;9.27;2.58;;;;;;;18.08;50.58;100703.59;5059528;28;20045;-72
2022/05/30 06:35:40;;;;;;;10.05;2.33;;;;;;;17.28;51.51;100699.59;5056892;28;20098;-72
2022/05/30 06:38:08;;;;;;;18.70;4.70;;;;;;;16.92;51.67;100698.06;5067356;28;20052;-72
2022/05/30 06:40:36;;;;;;;11.43;2.13;;;;;;;16.91;52.78;100702.53;5065013;28;20544;-73
2022/05/30 06:43:02;;;;;;;10.20;3.33;;;;;;;16.76;53.22;100709.00;5058213;28;20066;-73
2022/05/30 06:45:29;;;;;;;10.32;2.72;;;;;;;16.15;53.61;100712.00;5062545;28;20109;-74
2022/05/30 06:47:56;;;;;;;7.57;2.88;;;;;;;16.24;54.33;100706.84;5045255;28;20598;-74
2022/05/30 06:50:22;;;;;;;9.63;3.28;;;;;;;16.41;53.35;100702.91;5048297;28;20048;-74
2022/05/30 06:52:48;;;;;;;11.55;2.78;;;;;;;16.89;53.14;100700.94;5054336;28;20052;-75
2022/05/30 06:55:15;;;;;;;10.07;3.10;;;;;;;16.94;52.55;100699.63;5060827;28;20642;-74
2022/05/30 07:00:26;;;;;;;11.10;3.00;;;;;;;15.85;55.64;100708.00;5062362;28;20051;-74
2022/05/30 07:02:53;;;;;;;9.15;2.28;;;;;;;15.92;55.22;100705.78;5051416;28;20044;-74
2022/05/30 07:05:19;;;;;;;8.65;2.40;;;;;;;15.57;55.99;100709.19;5065722;28;20559;-74
2022/05/30 07:07:46;;;;;;;13.95;3.22;;;;;;;15.43;55.04;100717.25;5067198;28;20048;-74
2022/05/30 07:10:14;;;;;;;14.48;3.65;;;;;;;15.78;55.70;100720.00;5065976;28;20493;-75
2022/05/30 07:12:40;;;;;;;10.18;3.50;;;;;;;16.47;53.92;100713.03;5062306;28;20059;-75
2022/05/30 07:15:09;;;;;;;10.90;3.67;;;;;;;16.82;57.14;100718.28;5050476;28;20040;-75
2022/05/30 07:17:36;;;;;;;9.50;2.83;;;;;;;18.00;53.02;100712.19;5065755;28;20037;-75
2022/05/30 07:20:03;;;;;;;5.60;2.53;;;;;;;18.77;51.21;100711.91;5064923;28;20459;-75
2022/05/30 07:22:29;;;;;;;12.82;2.55;;;;;;;18.92;49.78;100703.44;5053696;28;20044;-74
2022/05/30 07:24:56;;;;;;;9.88;2.25;;;;;;;18.30;46.74;100710.59;5060173;28;20136;-75
2022/05/30 07:27:22;;;;;;;9.10;3.33;;;;;;;17.97;47.91;100719.56;5047249;28;20041;-74
2022/05/30 07:29:49;;;;;;;6.60;2.22;;;;;;;17.21;48.40;100723.09;5046861;28;20094;-74
2022/05/30 07:32:17;;;;;;;13.45;2.22;;;;;;;17.08;48.12;100727.66;5065835;28;20451;-74
2022/05/30 07:34:44;;;;;;;5.70;2.03;;;;;;;16.34;51.45;100721.06;5057021;28;20051;-74
2022/05/30 07:37:11;;;;;;;8.38;2.20;;;;;;;16.07;52.26;100728.44;5057274;28;20141;-75
2022/05/30 07:39:38;;;;;;;9.73;2.20;;;;;;;16.07;52.39;100731.09;5067744;28;20070;-74
2022/05/30 07:42:06;;;;;;;11.18;2.70;;;;;;;15.85;53.50;100736.28;5063418;28;20049;-74
2022/05/30 07:44:33;;;;;;;9.73;2.58;;;;;;;16.01;55.20;100728.88;5064022;28;20040;-75
2022/05/30 07:47:00;;;;;;;10.20;2.25;;;;;;;15.80;55.22;100735.75;5047421;28;20493;-75
2022/05/30 07:49:27;;;;;;;5.85;1.95;;;;;;;16.12;53.57;100731.56;5043691;28;20113;-72
2022/05/30 07:51:54;;;;;;;13.57;2.83;;;;;;;16.48;56.85;100733.25;5051012;28;20632;-73
2022/05/30 07:54:21;;;;;;;6.05;1.90;;;;;;;17.22;54.01;100731.91;5061136;28;20048;-74
2022/05/30 07:56:48;;;;;;;6.32;1.98;;;;;;;18.21;51.58;100732.63;5055267;28;20045;-72
2022/05/30 07:59:15;;;;;;;5.00;1.40;;;;;;;18.61;45.81;100727.47;5055002;28;20066;-72
2022/05/30 08:01:42;;;;;;;5.55;1.58;;;;;;;18.89;45.88;100737.41;5062565;28;20123;-72
2022/05/30 08:04:13;;;;;;;4.40;1.60;;;;;;;18.82;43.32;100730.94;5050038;28;20579;-72
2022/05/30 08:06:41;;;;;;;5.07;1.40;;;;;;;18.50;44.51;100736.31;5044018;28;20048;-72
2022/05/30 08:09:07;;;;;;;3.45;1.38;;;;;;;18.07;47.63;100754.97;5043428;28;20041;-72
2022/05/30 08:11:34;;;;;;;4.13;1.52;;;;;;;18.16;47.07;100742.75;5054298;28;20438;-72
2022/05/30 08:14:00;;;;;;;6.88;1.80;;;;;;;17.97;47.64;100748.75;5051642;28;20049;-72
2022/05/30 08:16:28;;;;;;;4.78;1.80;;;;;;;17.53;49.01;100741.72;5059308;28;20037;-72
2022/05/30 08:18:54;;;;;;;4.88;1.38;;;;;;;17.07;48.70;100749.00;5064678;28;20435;-72
2022/05/30 08:21:21;;;;;;;6.47;1.88;;;;;;;16.75;49.36;100754.13;5050138;28;20071;-73
2022/05/30 08:23:48;;;;;;;7.25;1.63;;;;;;;16.67;50.09;100749.44;5048635;28;20554;-73
2022/05/30 08:26:15;;;;;;;7.55;1.58;;;;;;;16.62;50.43;100762.19;5061720;28;20389;-73
2022/05/30 08:28:41;;;;;;;4.85;1.38;;;;;;;16.88;50.66;100752.25;5063221;28;20110;-73
2022/05/30 08:31:08;;;;;;;5.55;2.03;;;;;;;16.84;50.79;100756.09;5062886;28;20072;-73
2022/05/30 08:33:35;;;;;;;4.72;1.67;;;;;;;16.82;51.80;100758.00;5055958;28;20124;-73
2022/05/30 08:36:04;;;;;;;7.57;1.70;;;;;;;16.88;50.36;100754.91;5045052;28;20501;-73
2022/05/30 08:38:33;;;;;;;5.85;1.42;;;;;;;17.05;50.71;100757.06;5057446;28;20455;-71
2022/05/30 08:43:49;;;;;;;7.93;1.58;;;;;;;16.88;50.38;100754.91;5050548;28;20748;-70
2022/05/30 08:46:33;;;;;;;13.32;2.45;;;;;;;16.80;51.60;100758.13;5055490;28;20051;-69
2022/05/30 08:49:10;;;;;;;5.38;1.63;;;;;;;16.83;50.14;100762.34;5054888;28;20067;-69
2022/05/30 08:52:02;;;;;;;5.85;2.00;;;;;;;16.88;50.09;100768.13;5063826;28;20055;-69
2022/05/30 08:54:37;;;;;;;6.95;1.52;;;;;;;17.07;50.47;100767.53;5050470;28;20646;-70
2022/05/30 08:57:14;;;;;;;3.65;1.25;;;;;;;17.15;50.85;100770.41;5048392;28;20428;-70
2022/05/30 08:59:55;;;;;;;4.78;1.63;;;;;;;17.70;50.49;100772.22;5041876;28;20045;-70
2022/05/30 09:02:25;;;;;;;5.32;1.63;;;;;;;17.46;49.14;100775.84;5055861;28;20118;-70
2022/05/30 09:04:56;;;;;;;5.70;1.50;;;;;;;17.51;45.48;100772.81;5047627;28;20463;-70
2022/05/30 09:07:27;;;;;;;5.85;1.40;;;;;;;17.48;47.32;100776.53;5047599;28;20493;-70
2022/05/30 09:09:59;;;;;;;5.45;1.30;;;;;;;17.74;48.62;100789.56;5055318;28;20041;-70
2022/05/30 09:12:32;;;;;;;4.45;1.55;;;;;;;18.06;45.43;100789.59;5048027;28;20044;-70
2022/05/30 09:15:04;;;;;;;5.78;1.48;;;;;;;18.29;44.75;100780.59;5059998;28;20051;-69
2022/05/30 09:17:35;;;;;;;6.73;1.57;;;;;;;18.50;46.17;100784.09;5056829;28;20070;-70
2022/05/30 09:20:05;;;;;;;4.93;1.55;;;;;;;18.93;45.62;100784.00;5067220;28;20287;-69
2022/05/30 09:22:31;;;;;;;5.82;1.60;;;;;;;19.08;47.88;100769.38;5051423;28;20045;-69
2022/05/30 09:27:48;;;;;;;6.10;1.38;;;;;;;18.69;43.54;100792.25;5014503;28;20570;-70
2022/05/30 09:30:20;;;;;;;4.00;1.52;;;;;;;18.72;45.77;100788.47;5048000;28;20052;-70
2022/05/30 09:32:58;;;;;;;4.68;1.20;;;;;;;18.58;45.76;100786.16;5063877;28;20052;-70
2022/05/30 09:35:28;;;;;;;5.10;1.30;;;;;;;18.52;45.16;100784.00;5063553;28;20082;-70
2022/05/30 09:38:06;;;;;;;4.72;1.48;;;;;;;18.36;45.39;100800.34;5067566;28;20098;-70
2022/05/30 09:40:42;;;;;;;5.88;1.70;;;;;;;18.90;47.05;100779.78;5064824;28;20048;-70
2022/05/30 09:43:22;;;;;;;8.90;1.65;;;;;;;18.93;43.10;100781.34;5050943;28;20539;-70
2022/05/30 09:45:48;;;;;;;6.57;1.70;;;;;;;19.00;46.48;100785.13;5046111;28;20041;-70
2022/05/30 09:48:19;;;;;;;4.70;1.55;;;;;;;18.73;46.30;100782.22;5059767;28;20045;-70
2022/05/30 09:50:47;;;;;;;7.70;2.00;;;;;;;18.98;45.46;100778.28;5066684;28;20382;-70
2022/05/30 09:53:15;;;;;;;5.22;1.90;;;;;;;19.16;46.13;100788.16;5054774;28;20072;-70
2022/05/30 09:55:48;;;;;;;4.43;2.03;;;;;;;19.59;43.03;100779.09;5055905;28;20453;-70
2022/05/30 09:58:16;;;;;;;4.38;1.17;;;;;;;19.64;44.83;100776.91;5048040;28;20099;-70
2022/05/30 10:00:50;;;;;;;6.60;1.50;;;;;;;19.51;45.45;100784.28;5046501;28;20057;-70
2022/05/30 10:03:29;;;;;;;6.07;1.58;;;;;;;19.50;43.99;100775.47;5053093;28;20036;-70
2022/05/30 10:06:12;;;;;;;3.90;1.55;;;;;;;19.78;45.62;100781.81;5064161;28;20562;-70
2022/05/30 10:08:39;;;;;;;5.53;1.73;;;;;;;19.95;43.58;100777.66;5049847;28;20048;-70
2022/05/30 10:11:06;;;;;;;6.18;1.80;;;;;;;19.70;41.02;100784.31;5057219;28;20045;-70
2022/05/30 10:13:36;;;;;;;8.18;2.00;;;;;;;19.37;42.80;100780.97;5053844;28;20107;-70
2022/05/30 10:16:04;;;;;;;5.20;1.50;;;;;;;18.60;46.30;100784.19;5046410;28;20459;-70
2022/05/30 10:18:35;;;;;;;8.27;2.20;;;;;;;18.44;45.01;100785.44;5046414;28;20075;-70
2022/05/30 10:21:12;;;;;;;5.93;1.70;;;;;;;18.28;45.03;100774.44;5046873;28;20051;-70
2022/05/30 10:29:56;;;;;;;4.47;1.80;;;;;;;19.03;46.88;100774.25;5067692;28;20510;-70
2022/05/30 10:32:30;;;;;;;6.32;1.70;;;;;;;19.26;45.95;100782.88;5065675;28;20044;-70
2022/05/30 10:35:22;;;;;;;6.55;1.58;;;;;;;19.57;44.64;100781.09;5049728;28;20041;-70
2022/05/30 10:38:21;;;;;;;5.55;1.52;;;;;;;19.61;44.97;100777.19;5045651;28;20057;-70
2022/05/30 10:40:58;;;;;;;7.70;1.77;;;;;;;19.79;43.99;100788.84;5055059;28;20050;-70
2022/05/30 10:43:32;;;;;;;7.38;1.67;;;;;;;19.68;43.41;100789.78;5048005;28;20040;-70
2022/05/30 10:46:02;;;;;;;6.85;1.58;;;;;;;19.95;41.54;100786.50;5059667;28;20041;-70
2022/05/30 10:48:33;;;;;;;8.65;1.55;;;;;;;19.91;43.05;100779.75;5066034;28;20420;-70
2022/05/30 10:51:04;;;;;;;4.45;1.42;;;;;;;19.75;43.65;100787.44;5053686;28;20057;-70
2022/05/30 10:53:38;;;;;;;5.65;1.52;;;;;;;19.96;43.84;100793.47;5051954;28;20040;-70
2022/05/30 10:56:15;;;;;;;5.60;1.38;;;;;;;19.90;45.40;100784.25;5054054;28;20091;-70
2022/05/30 10:58:47;;;;;;;22.75;1.77;;;;;;;20.23;44.01;100784.81;5044919;28;20048;-70
2022/05/30 11:01:28;;;;;;;4.88;1.27;;;;;;;20.52;42.33;100791.00;5056454;28;20048;-70
2022/05/30 11:04:08;;;;;;;8.18;1.70;;;;;;;20.37;40.20;100797.75;5055346;28;20041;-70
2022/05/30 11:06:40;;;;;;;7.07;1.50;;;;;;;20.23;39.62;100793.66;5055588;28;20119;-70
2022/05/30 11:09:14;;;;;;;8.30;1.37;;;;;;;20.88;41.53;100787.56;5051897;28;20098;-70
2022/05/30 11:11:45;;;;;;;6.32;1.55;;;;;;;21.09;41.79;100787.41;5065813;28;20048;-70
2022/05/30 11:14:21;;;;;;;6.35;1.48;;;;;;;21.16;38.76;100788.53;5063464;28;20044;-70
2022/05/30 11:16:58;;;;;;;4.95;1.48;;;;;;;20.43;40.41;100794.53;5065008;28;20048;-70
2022/05/30 11:19:33;;;;;;;5.65;1.55;;;;;;;20.07;39.23;100788.03;5064710;28;20094;-70
2022/05/30 11:22:06;;;;;;;5.68;1.48;;;;;;;19.71;39.69;100799.31;5065305;28;20048;-70
2022/05/30 11:24:34;;;;;;;4.25;1.25;;;;;;;19.66;40.65;100798.91;5056604;28;20044;-70
2022/05/30 11:27:11;;;;;;;4.65;1.20;;;;;;;19.31;42.48;100791.31;5058584;28;20044;-70
2022/05/30 11:30:09;;;;;;;3.30;1.10;;;;;;;19.31;40.71;100796.63;5060458;28;20139;-70
2022/05/30 11:32:49;;;;;;;5.70;1.38;;;;;;;19.48;44.43;100798.69;5062024;28;20139;-70
2022/05/30 11:35:31;;;;;;;5.40;1.33;;;;;;;19.60;44.78;100794.09;5065637;28;20048;-70
2022/05/30 11:38:10;;;;;;;6.90;1.40;;;;;;;19.74;41.53;100791.06;5066498;28;20051;-70
2022/05/30 11:40:43;;;;;;;3.70;1.10;;;;;;;20.02;40.65;100784.13;5064192;28;20048;-70
2022/05/30 11:43:28;;;;;;;7.40;2.35;;;;;;;19.88;39.51;100790.69;5057217;28;20713;-70
2022/05/30 11:45:57;;;;;;;8.95;1.58;;;;;;;19.70;42.86;100789.63;5066177;28;20044;-70
2022/05/30 11:48:32;;;;;;;6.18;1.70;;;;;;;19.61;43.19;100796.63;5068438;28;20485;-69
2022/05/30 11:51:09;;;;;;;6.78;1.50;;;;;;;19.56;41.52;100798.84;5061799;28;20110;-69